Terminal Aerodrome Forecast
Issued by NWS Des Moines, IA

Home | Current Version | Previous Version | Text Only | Print | Product List | Glossary On
Versions: 1 2 3 4 5 6 7 8 9 10 11 12 13 14 15 16 17 18 19 20
000
FTUS43 KDMX 260633 AAB
TAFDSM
TAF AMD
KDSM 260633Z 2607/2706 VRB05KT P6SM VCTS SCT002 BKN025CB
      TEMPO 2607/2609 1SM RA BR BKN002
     FM261100 VRB03KT P6SM OVC008
     FM261600 29007KT P6SM OVC014
     FM262200 33008G15KT P6SM BKN035=

USA.gov is the U.S. government's official web portal to all federal, state and local government web resources and services.